sensor_id;sensor_type;location;lat;lon;timestamp;P1;durP1;ratioP1;P2;durP2;ratioP2
21611;SDS011;47005;52.292;13.452;2023-06-26T00:01:16;11.20;;;9.05;;
21611;SDS011;47005;52.292;13.452;2023-06-26T00:03:45;10.27;;;8.40;;
21611;SDS011;47005;52.292;13.452;2023-06-26T00:06:11;10.52;;;8.95;;
21611;SDS011;47005;52.292;13.452;2023-06-26T00:08:37;10.07;;;8.77;;
21611;SDS011;47005;52.292;13.452;2023-06-26T00:11:03;11.40;;;9.00;;
21611;SDS011;47005;52.292;13.452;2023-06-26T00:13:28;10.77;;;9.65;;
21611;SDS011;47005;52.292;13.452;2023-06-26T00:15:54;11.65;;;10.20;;
21611;SDS011;47005;52.292;13.452;2023-06-26T00:18:20;11.18;;;9.55;;
21611;SDS011;47005;52.292;13.452;2023-06-26T00:20:46;11.23;;;9.95;;
21611;SDS011;47005;52.292;13.452;2023-06-26T00:23:12;11.65;;;9.75;;
21611;SDS011;47005;52.292;13.452;2023-06-26T00:25:38;14.80;;;11.15;;
21611;SDS011;47005;52.292;13.452;2023-06-26T00:28:03;12.82;;;10.88;;
21611;SDS011;47005;52.292;13.452;2023-06-26T00:30:29;12.63;;;11.27;;
21611;SDS011;47005;52.292;13.452;2023-06-26T00:32:55;14.15;;;12.68;;
21611;SDS011;47005;52.292;13.452;2023-06-26T00:35:20;14.50;;;11.65;;
21611;SDS011;47005;52.292;13.452;2023-06-26T00:37:46;14.55;;;13.00;;
21611;SDS011;47005;52.292;13.452;2023-06-26T00:40:12;18.95;;;14.45;;
21611;SDS011;47005;52.292;13.452;2023-06-26T00:42:38;16.73;;;15.02;;
21611;SDS011;47005;52.292;13.452;2023-06-26T00:45:03;18.20;;;16.00;;
21611;SDS011;47005;52.292;13.452;2023-06-26T00:47:29;20.10;;;16.65;;
21611;SDS011;47005;52.292;13.452;2023-06-26T00:49:55;20.75;;;16.10;;
21611;SDS011;47005;52.292;13.452;2023-06-26T00:52:22;19.38;;;17.33;;
21611;SDS011;47005;52.292;13.452;2023-06-26T00:54:48;17.48;;;15.68;;
21611;SDS011;47005;52.292;13.452;2023-06-26T00:57:16;18.60;;;15.23;;
21611;SDS011;47005;52.292;13.452;2023-06-26T00:59:42;15.98;;;14.27;;
21611;SDS011;47005;52.292;13.452;2023-06-26T01:02:08;16.95;;;14.68;;
21611;SDS011;47005;52.292;13.452;2023-06-26T01:04:34;17.02;;;15.27;;
21611;SDS011;47005;52.292;13.452;2023-06-26T01:07:01;16.60;;;14.80;;
21611;SDS011;47005;52.292;13.452;2023-06-26T01:09:27;18.50;;;16.27;;
21611;SDS011;47005;52.292;13.452;2023-06-26T01:11:54;18.50;;;16.55;;
21611;SDS011;47005;52.292;13.452;2023-06-26T01:14:20;19.48;;;17.48;;
21611;SDS011;47005;52.292;13.452;2023-06-26T01:16:45;20.92;;;18.73;;
21611;SDS011;47005;52.292;13.452;2023-06-26T01:19:33;21.50;;;17.30;;
21611;SDS011;47005;52.292;13.452;2023-06-26T01:22:18;25.55;;;19.30;;
21611;SDS011;47005;52.292;13.452;2023-06-26T01:27:46;24.23;;;21.67;;
21611;SDS011;47005;52.292;13.452;2023-06-26T01:30:14;26.50;;;23.58;;
21611;SDS011;47005;52.292;13.452;2023-06-26T01:32:41;27.15;;;24.35;;
21611;SDS011;47005;52.292;13.452;2023-06-26T01:35:07;25.13;;;22.65;;
21611;SDS011;47005;52.292;13.452;2023-06-26T01:37:34;24.10;;;21.67;;
21611;SDS011;47005;52.292;13.452;2023-06-26T01:40:00;22.48;;;20.08;;
21611;SDS011;47005;52.292;13.452;2023-06-26T01:42:26;27.80;;;24.83;;
21611;SDS011;47005;52.292;13.452;2023-06-26T01:44:52;24.30;;;21.75;;
21611;SDS011;47005;52.292;13.452;2023-06-26T01:47:21;25.70;;;23.08;;
21611;SDS011;47005;52.292;13.452;2023-06-26T01:52:41;21.95;;;19.83;;
21611;SDS011;47005;52.292;13.452;2023-06-26T01:57:46;22.70;;;20.02;;
21611;SDS011;47005;52.292;13.452;2023-06-26T02:00:16;27.88;;;23.75;;
21611;SDS011;47005;52.292;13.452;2023-06-26T02:02:44;30.75;;;25.48;;
21611;SDS011;47005;52.292;13.452;2023-06-26T02:05:11;27.02;;;24.33;;
21611;SDS011;47005;52.292;13.452;2023-06-26T02:07:37;26.55;;;23.77;;
21611;SDS011;47005;52.292;13.452;2023-06-26T02:10:03;25.48;;;22.27;;
21611;SDS011;47005;52.292;13.452;2023-06-26T02:12:29;24.55;;;21.90;;
21611;SDS011;47005;52.292;13.452;2023-06-26T02:14:54;25.60;;;22.63;;
21611;SDS011;47005;52.292;13.452;2023-06-26T02:17:20;23.98;;;21.45;;
21611;SDS011;47005;52.292;13.452;2023-06-26T02:19:45;23.42;;;20.58;;
21611;SDS011;47005;52.292;13.452;2023-06-26T02:22:15;22.70;;;20.13;;
21611;SDS011;47005;52.292;13.452;2023-06-26T02:24:45;20.13;;;18.10;;
21611;SDS011;47005;52.292;13.452;2023-06-26T02:27:11;18.60;;;16.83;;
21611;SDS011;47005;52.292;13.452;2023-06-26T02:29:38;20.13;;;16.50;;
21611;SDS011;47005;52.292;13.452;2023-06-26T02:32:04;17.77;;;15.88;;
21611;SDS011;47005;52.292;13.452;2023-06-26T02:34:30;18.38;;;16.33;;
21611;SDS011;47005;52.292;13.452;2023-06-26T02:36:56;18.52;;;16.60;;
21611;SDS011;47005;52.292;13.452;2023-06-26T02:39:23;20.02;;;17.02;;
21611;SDS011;47005;52.292;13.452;2023-06-26T02:41:49;19.75;;;17.00;;
21611;SDS011;47005;52.292;13.452;2023-06-26T02:44:15;20.10;;;17.42;;
21611;SDS011;47005;52.292;13.452;2023-06-26T02:46:40;20.13;;;15.90;;
21611;SDS011;47005;52.292;13.452;2023-06-26T02:49:06;18.35;;;15.57;;
21611;SDS011;47005;52.292;13.452;2023-06-26T02:51:32;18.75;;;14.90;;
21611;SDS011;47005;52.292;13.452;2023-06-26T02:53:58;17.70;;;14.88;;
21611;SDS011;47005;52.292;13.452;2023-06-26T02:56:24;18.15;;;15.15;;
21611;SDS011;47005;52.292;13.452;2023-06-26T02:58:53;16.65;;;14.38;;
21611;SDS011;47005;52.292;13.452;2023-06-26T03:01:20;16.38;;;14.48;;
21611;SDS011;47005;52.292;13.452;2023-06-26T03:03:46;18.33;;;16.15;;
21611;SDS011;47005;52.292;13.452;2023-06-26T03:06:13;16.98;;;14.85;;
21611;SDS011;47005;52.292;13.452;2023-06-26T03:08:39;16.45;;;14.40;;
21611;SDS011;47005;52.292;13.452;2023-06-26T03:11:05;20.08;;;15.48;;
21611;SDS011;47005;52.292;13.452;2023-06-26T03:13:32;19.65;;;16.15;;
21611;SDS011;47005;52.292;13.452;2023-06-26T03:15:59;16.33;;;14.63;;
21611;SDS011;47005;52.292;13.452;2023-06-26T03:18:25;16.50;;;14.40;;
21611;SDS011;47005;52.292;13.452;2023-06-26T03:20:51;16.38;;;14.63;;
21611;SDS011;47005;52.292;13.452;2023-06-26T03:23:19;18.02;;;15.38;;
21611;SDS011;47005;52.292;13.452;2023-06-26T03:25:45;15.90;;;14.13;;
21611;SDS011;47005;52.292;13.452;2023-06-26T03:28:11;16.83;;;15.02;;
21611;SDS011;47005;52.292;13.452;2023-06-26T03:30:36;15.65;;;13.38;;
21611;SDS011;47005;52.292;13.452;2023-06-26T03:33:02;16.75;;;14.52;;
21611;SDS011;47005;52.292;13.452;2023-06-26T03:35:28;17.50;;;13.85;;
21611;SDS011;47005;52.292;13.452;2023-06-26T03:37:53;17.38;;;14.00;;
21611;SDS011;47005;52.292;13.452;2023-06-26T03:40:19;15.63;;;14.00;;
21611;SDS011;47005;52.292;13.452;2023-06-26T03:42:45;18.52;;;15.40;;
21611;SDS011;47005;52.292;13.452;2023-06-26T03:45:11;20.35;;;14.77;;
21611;SDS011;47005;52.292;13.452;2023-06-26T03:47:36;14.95;;;12.63;;
21611;SDS011;47005;52.292;13.452;2023-06-26T03:50:02;17.30;;;15.50;;
21611;SDS011;47005;52.292;13.452;2023-06-26T03:52:28;19.38;;;15.65;;
21611;SDS011;47005;52.292;13.452;2023-06-26T03:54:56;16.05;;;13.90;;
21611;SDS011;47005;52.292;13.452;2023-06-26T03:57:22;16.92;;;15.25;;
21611;SDS011;47005;52.292;13.452;2023-06-26T03:59:48;17.60;;;15.68;;
21611;SDS011;47005;52.292;13.452;2023-06-26T04:02:14;17.48;;;15.43;;
21611;SDS011;47005;52.292;13.452;2023-06-26T04:04:40;16.55;;;14.05;;
21611;SDS011;47005;52.292;13.452;2023-06-26T04:07:05;17.55;;;15.73;;
21611;SDS011;47005;52.292;13.452;2023-06-26T04:09:31;18.27;;;14.45;;
21611;SDS011;47005;52.292;13.452;2023-06-26T04:11:57;16.70;;;15.00;;
21611;SDS011;47005;52.292;13.452;2023-06-26T04:14:22;17.00;;;14.90;;
21611;SDS011;47005;52.292;13.452;2023-06-26T04:16:48;14.73;;;13.27;;
21611;SDS011;47005;52.292;13.452;2023-06-26T04:19:13;15.60;;;13.27;;
21611;SDS011;47005;52.292;13.452;2023-06-26T04:21:39;14.43;;;12.65;;
21611;SDS011;47005;52.292;13.452;2023-06-26T04:24:05;14.23;;;12.68;;
21611;SDS011;47005;52.292;13.452;2023-06-26T04:26:31;13.43;;;12.05;;
21611;SDS011;47005;52.292;13.452;2023-06-26T04:28:57;15.23;;;12.50;;
21611;SDS011;47005;52.292;13.452;2023-06-26T04:31:22;13.82;;;12.27;;
21611;SDS011;47005;52.292;13.452;2023-06-26T04:33:48;14.50;;;12.63;;
21611;SDS011;47005;52.292;13.452;2023-06-26T04:36:19;13.55;;;12.02;;
21611;SDS011;47005;52.292;13.452;2023-06-26T04:38:45;16.23;;;12.85;;
21611;SDS011;47005;52.292;13.452;2023-06-26T04:41:13;16.98;;;12.60;;
21611;SDS011;47005;52.292;13.452;2023-06-26T04:43:38;13.43;;;12.02;;
21611;SDS011;47005;52.292;13.452;2023-06-26T04:46:04;18.10;;;12.80;;
21611;SDS011;47005;52.292;13.452;2023-06-26T04:48:30;19.30;;;14.05;;
21611;SDS011;47005;52.292;13.452;2023-06-26T04:50:56;16.77;;;13.25;;
21611;SDS011;47005;52.292;13.452;2023-06-26T04:53:24;15.82;;;12.18;;
21611;SDS011;47005;52.292;13.452;2023-06-26T04:55:50;15.55;;;13.82;;
21611;SDS011;47005;52.292;13.452;2023-06-26T04:58:16;22.55;;;13.90;;
21611;SDS011;47005;52.292;13.452;2023-06-26T05:00:42;15.45;;;13.07;;
21611;SDS011;47005;52.292;13.452;2023-06-26T05:03:14;14.93;;;13.27;;
21611;SDS011;47005;52.292;13.452;2023-06-26T05:05:42;14.45;;;12.13;;
21611;SDS011;47005;52.292;13.452;2023-06-26T05:08:15;16.95;;;12.48;;
21611;SDS011;47005;52.292;13.452;2023-06-26T05:10:46;19.45;;;11.98;;
21611;SDS011;47005;52.292;13.452;2023-06-26T05:13:12;19.52;;;12.18;;
21611;SDS011;47005;52.292;13.452;2023-06-26T05:15:40;18.02;;;14.00;;
21611;SDS011;47005;52.292;13.452;2023-06-26T05:18:07;15.57;;;13.57;;
21611;SDS011;47005;52.292;13.452;2023-06-26T05:20:33;15.40;;;11.88;;
21611;SDS011;47005;52.292;13.452;2023-06-26T05:23:02;21.08;;;15.20;;
21611;SDS011;47005;52.292;13.452;2023-06-26T05:25:29;17.45;;;13.98;;
21611;SDS011;47005;52.292;13.452;2023-06-26T05:27:56;20.35;;;13.57;;
21611;SDS011;47005;52.292;13.452;2023-06-26T05:30:23;18.63;;;14.55;;
21611;SDS011;47005;52.292;13.452;2023-06-26T05:32:52;16.42;;;13.75;;
21611;SDS011;47005;52.292;13.452;2023-06-26T05:35:21;19.58;;;15.80;;
21611;SDS011;47005;52.292;13.452;2023-06-26T05:37:48;16.80;;;14.52;;
21611;SDS011;47005;52.292;13.452;2023-06-26T05:40:15;15.73;;;14.10;;
21611;SDS011;47005;52.292;13.452;2023-06-26T05:42:42;16.45;;;14.75;;
21611;SDS011;47005;52.292;13.452;2023-06-26T05:45:08;19.80;;;14.77;;
21611;SDS011;47005;52.292;13.452;2023-06-26T05:47:34;14.63;;;13.07;;
21611;SDS011;47005;52.292;13.452;2023-06-26T05:50:00;17.20;;;14.40;;
21611;SDS011;47005;52.292;13.452;2023-06-26T05:52:26;15.88;;;14.07;;
21611;SDS011;47005;52.292;13.452;2023-06-26T05:54:52;14.75;;;13.25;;
21611;SDS011;47005;52.292;13.452;2023-06-26T05:57:19;14.43;;;12.88;;
21611;SDS011;47005;52.292;13.452;2023-06-26T05:59:46;17.00;;;14.85;;
21611;SDS011;47005;52.292;13.452;2023-06-26T06:02:12;14.15;;;12.75;;
21611;SDS011;47005;52.292;13.452;2023-06-26T06:04:38;14.05;;;12.55;;
21611;SDS011;47005;52.292;13.452;2023-06-26T06:07:03;15.35;;;12.02;;
21611;SDS011;47005;52.292;13.452;2023-06-26T06:09:29;14.38;;;11.95;;
21611;SDS011;47005;52.292;13.452;2023-06-26T06:11:55;13.95;;;12.55;;
21611;SDS011;47005;52.292;13.452;2023-06-26T06:14:21;14.95;;;13.38;;
21611;SDS011;47005;52.292;13.452;2023-06-26T06:16:46;13.35;;;11.88;;
21611;SDS011;47005;52.292;13.452;2023-06-26T06:19:12;12.88;;;11.57;;
21611;SDS011;47005;52.292;13.452;2023-06-26T06:21:38;13.10;;;11.52;;
21611;SDS011;47005;52.292;13.452;2023-06-26T06:24:04;13.48;;;11.63;;
21611;SDS011;47005;52.292;13.452;2023-06-26T06:26:31;13.57;;;10.93;;
21611;SDS011;47005;52.292;13.452;2023-06-26T06:28:57;12.20;;;10.82;;
21611;SDS011;47005;52.292;13.452;2023-06-26T06:31:23;13.52;;;10.52;;
21611;SDS011;47005;52.292;13.452;2023-06-26T06:33:49;13.88;;;11.43;;
21611;SDS011;47005;52.292;13.452;2023-06-26T06:36:14;13.77;;;10.32;;
21611;SDS011;47005;52.292;13.452;2023-06-26T06:38:43;13.73;;;9.73;;
21611;SDS011;47005;52.292;13.452;2023-06-26T06:41:09;11.25;;;9.55;;
21611;SDS011;47005;52.292;13.452;2023-06-26T06:43:35;11.38;;;9.98;;
21611;SDS011;47005;52.292;13.452;2023-06-26T06:46:01;11.43;;;10.20;;
21611;SDS011;47005;52.292;13.452;2023-06-26T06:48:27;13.13;;;9.98;;
21611;SDS011;47005;52.292;13.452;2023-06-26T06:50:53;10.70;;;9.32;;
21611;SDS011;47005;52.292;13.452;2023-06-26T06:53:18;10.98;;;9.85;;
21611;SDS011;47005;52.292;13.452;2023-06-26T06:55:48;9.55;;;8.65;;
21611;SDS011;47005;52.292;13.452;2023-06-26T06:58:14;9.95;;;8.70;;
21611;SDS011;47005;52.292;13.452;2023-06-26T07:00:42;9.88;;;8.52;;
21611;SDS011;47005;52.292;13.452;2023-06-26T07:03:08;11.05;;;9.00;;
21611;SDS011;47005;52.292;13.452;2023-06-26T07:05:33;10.18;;;8.82;;
21611;SDS011;47005;52.292;13.452;2023-06-26T07:08:02;9.02;;;8.13;;
21611;SDS011;47005;52.292;13.452;2023-06-26T07:10:28;9.85;;;8.05;;
21611;SDS011;47005;52.292;13.452;2023-06-26T07:12:54;8.93;;;7.85;;
21611;SDS011;47005;52.292;13.452;2023-06-26T07:15:20;11.43;;;7.78;;
21611;SDS011;47005;52.292;13.452;2023-06-26T07:17:45;8.95;;;7.95;;
21611;SDS011;47005;52.292;13.452;2023-06-26T07:20:11;8.48;;;7.07;;
21611;SDS011;47005;52.292;13.452;2023-06-26T07:22:40;8.18;;;7.35;;
21611;SDS011;47005;52.292;13.452;2023-06-26T07:25:07;8.38;;;6.90;;
21611;SDS011;47005;52.292;13.452;2023-06-26T07:27:39;7.85;;;6.70;;
21611;SDS011;47005;52.292;13.452;2023-06-26T07:30:05;7.25;;;6.30;;
21611;SDS011;47005;52.292;13.452;2023-06-26T07:32:34;8.00;;;6.32;;
21611;SDS011;47005;52.292;13.452;2023-06-26T07:35:00;7.25;;;6.47;;
21611;SDS011;47005;52.292;13.452;2023-06-26T07:37:26;8.18;;;6.75;;
21611;SDS011;47005;52.292;13.452;2023-06-26T07:39:51;10.25;;;6.25;;
21611;SDS011;47005;52.292;13.452;2023-06-26T07:42:17;11.73;;;6.88;;
21611;SDS011;47005;52.292;13.452;2023-06-26T07:44:43;12.60;;;7.03;;
21611;SDS011;47005;52.292;13.452;2023-06-26T07:47:09;9.15;;;5.93;;
21611;SDS011;47005;52.292;13.452;2023-06-26T07:49:35;8.13;;;6.07;;
21611;SDS011;47005;52.292;13.452;2023-06-26T07:52:00;8.63;;;6.65;;
21611;SDS011;47005;52.292;13.452;2023-06-26T07:54:30;8.63;;;6.53;;
21611;SDS011;47005;52.292;13.452;2023-06-26T07:59:22;6.95;;;6.13;;
21611;SDS011;47005;52.292;13.452;2023-06-26T08:01:50;7.18;;;5.88;;
21611;SDS011;47005;52.292;13.452;2023-06-26T08:04:20;9.60;;;6.57;;
21611;SDS011;47005;52.292;13.452;2023-06-26T08:06:51;7.30;;;6.38;;
21611;SDS011;47005;52.292;13.452;2023-06-26T08:09:19;8.57;;;6.50;;
21611;SDS011;47005;52.292;13.452;2023-06-26T08:11:46;9.65;;;6.72;;
21611;SDS011;47005;52.292;13.452;2023-06-26T08:14:12;8.85;;;7.20;;
21611;SDS011;47005;52.292;13.452;2023-06-26T08:16:38;8.60;;;7.03;;
21611;SDS011;47005;52.292;13.452;2023-06-26T08:19:05;8.48;;;7.57;;
21611;SDS011;47005;52.292;13.452;2023-06-26T08:21:30;9.60;;;6.20;;
21611;SDS011;47005;52.292;13.452;2023-06-26T08:23:56;8.48;;;6.93;;
21611;SDS011;47005;52.292;13.452;2023-06-26T08:26:22;8.32;;;6.15;;
21611;SDS011;47005;52.292;13.452;2023-06-26T08:28:48;7.07;;;5.85;;
21611;SDS011;47005;52.292;13.452;2023-06-26T08:31:14;11.00;;;6.20;;
21611;SDS011;47005;52.292;13.452;2023-06-26T08:33:40;8.30;;;6.63;;
21611;SDS011;47005;52.292;13.452;2023-06-26T08:36:06;8.18;;;5.82;;
21611;SDS011;47005;52.292;13.452;2023-06-26T08:38:32;8.10;;;6.32;;
21611;SDS011;47005;52.292;13.452;2023-06-26T08:40:58;7.20;;;6.50;;
21611;SDS011;47005;52.292;13.452;2023-06-26T08:43:24;9.15;;;5.65;;
21611;SDS011;47005;52.292;13.452;2023-06-26T08:45:51;6.93;;;5.35;;
21611;SDS011;47005;52.292;13.452;2023-06-26T08:48:17;7.35;;;6.28;;
21611;SDS011;47005;52.292;13.452;2023-06-26T08:50:45;7.28;;;5.97;;
21611;SDS011;47005;52.292;13.452;2023-06-26T08:53:17;7.97;;;5.63;;
21611;SDS011;47005;52.292;13.452;2023-06-26T08:56:05;7.53;;;5.03;;
21611;SDS011;47005;52.292;13.452;2023-06-26T08:58:32;6.88;;;5.53;;
21611;SDS011;47005;52.292;13.452;2023-06-26T09:01:01;6.60;;;5.05;;
21611;SDS011;47005;52.292;13.452;2023-06-26T09:03:28;8.45;;;5.72;;
21611;SDS011;47005;52.292;13.452;2023-06-26T09:05:55;7.25;;;5.38;;
21611;SDS011;47005;52.292;13.452;2023-06-26T09:08:21;7.50;;;5.47;;
21611;SDS011;47005;52.292;13.452;2023-06-26T09:10:46;6.93;;;4.90;;
21611;SDS011;47005;52.292;13.452;2023-06-26T09:13:12;6.57;;;4.45;;
21611;SDS011;47005;52.292;13.452;2023-06-26T09:15:39;6.88;;;5.85;;
21611;SDS011;47005;52.292;13.452;2023-06-26T09:18:07;6.70;;;5.28;;
21611;SDS011;47005;52.292;13.452;2023-06-26T09:20:36;9.18;;;5.03;;
21611;SDS011;47005;52.292;13.452;2023-06-26T09:23:02;5.82;;;4.72;;
21611;SDS011;47005;52.292;13.452;2023-06-26T09:25:28;6.13;;;5.13;;
21611;SDS011;47005;52.292;13.452;2023-06-26T09:27:54;7.38;;;5.03;;
21611;SDS011;47005;52.292;13.452;2023-06-26T09:30:21;10.93;;;5.38;;
21611;SDS011;47005;52.292;13.452;2023-06-26T09:32:48;5.68;;;4.20;;
21611;SDS011;47005;52.292;13.452;2023-06-26T09:35:15;6.13;;;4.18;;
21611;SDS011;47005;52.292;13.452;2023-06-26T09:37:42;6.60;;;4.43;;
21611;SDS011;47005;52.292;13.452;2023-06-26T09:40:08;6.60;;;4.80;;
21611;SDS011;47005;52.292;13.452;2023-06-26T09:42:34;6.80;;;4.72;;
21611;SDS011;47005;52.292;13.452;2023-06-26T09:45:01;6.72;;;4.60;;
21611;SDS011;47005;52.292;13.452;2023-06-26T09:47:29;10.75;;;4.55;;
21611;SDS011;47005;52.292;13.452;2023-06-26T09:49:56;4.82;;;4.05;;
21611;SDS011;47005;52.292;13.452;2023-06-26T09:52:25;11.95;;;4.97;;
21611;SDS011;47005;52.292;13.452;2023-06-26T09:54:52;4.88;;;3.63;;
21611;SDS011;47005;52.292;13.452;2023-06-26T09:57:35;5.82;;;3.78;;
21611;SDS011;47005;52.292;13.452;2023-06-26T10:00:02;8.27;;;3.70;;
21611;SDS011;47005;52.292;13.452;2023-06-26T10:02:28;4.95;;;3.67;;
21611;SDS011;47005;52.292;13.452;2023-06-26T10:04:53;5.65;;;4.13;;
21611;SDS011;47005;52.292;13.452;2023-06-26T10:07:19;4.30;;;3.35;;
21611;SDS011;47005;52.292;13.452;2023-06-26T10:09:47;6.20;;;3.40;;
21611;SDS011;47005;52.292;13.452;2023-06-26T10:12:18;6.32;;;4.35;;
21611;SDS011;47005;52.292;13.452;2023-06-26T10:14:51;7.05;;;3.65;;
21611;SDS011;47005;52.292;13.452;2023-06-26T10:17:19;7.55;;;4.22;;
21611;SDS011;47005;52.292;13.452;2023-06-26T10:19:46;9.48;;;4.00;;
21611;SDS011;47005;52.292;13.452;2023-06-26T10:22:17;5.05;;;3.78;;
21611;SDS011;47005;52.292;13.452;2023-06-26T10:24:45;6.55;;;3.80;;
21611;SDS011;47005;52.292;13.452;2023-06-26T10:27:19;5.13;;;3.90;;
21611;SDS011;47005;52.292;13.452;2023-06-26T10:29:51;5.40;;;4.20;;
21611;SDS011;47005;52.292;13.452;2023-06-26T10:32:24;5.43;;;3.95;;
21611;SDS011;47005;52.292;13.452;2023-06-26T10:34:51;4.45;;;3.67;;
21611;SDS011;47005;52.292;13.452;2023-06-26T10:37:17;5.32;;;4.15;;
21611;SDS011;47005;52.292;13.452;2023-06-26T10:39:49;4.35;;;3.33;;
21611;SDS011;47005;52.292;13.452;2023-06-26T10:42:17;5.25;;;4.10;;
21611;SDS011;47005;52.292;13.452;2023-06-26T10:44:45;5.82;;;4.18;;
21611;SDS011;47005;52.292;13.452;2023-06-26T10:47:12;5.60;;;4.22;;
21611;SDS011;47005;52.292;13.452;2023-06-26T10:50:06;5.65;;;3.95;;
21611;SDS011;47005;52.292;13.452;2023-06-26T10:52:42;4.88;;;3.78;;
21611;SDS011;47005;52.292;13.452;2023-06-26T10:55:08;6.22;;;4.25;;
21611;SDS011;47005;52.292;13.452;2023-06-26T10:57:35;5.50;;;4.13;;
21611;SDS011;47005;52.292;13.452;2023-06-26T11:00:08;5.57;;;4.15;;
21611;SDS011;47005;52.292;13.452;2023-06-26T11:02:51;5.95;;;4.13;;
21611;SDS011;47005;52.292;13.452;2023-06-26T11:05:23;5.13;;;3.80;;
21611;SDS011;47005;52.292;13.452;2023-06-26T11:08:05;7.97;;;4.32;;
21611;SDS011;47005;52.292;13.452;2023-06-26T11:10:48;7.80;;;5.13;;
21611;SDS011;47005;52.292;13.452;2023-06-26T11:13:18;6.78;;;4.88;;
21611;SDS011;47005;52.292;13.452;2023-06-26T11:15:48;10.25;;;4.22;;
21611;SDS011;47005;52.292;13.452;2023-06-26T11:18:15;6.25;;;4.93;;
21611;SDS011;47005;52.292;13.452;2023-06-26T11:20:41;6.07;;;4.60;;
21611;SDS011;47005;52.292;13.452;2023-06-26T11:23:07;5.53;;;4.38;;
21611;SDS011;47005;52.292;13.452;2023-06-26T11:25:37;6.78;;;5.45;;
21611;SDS011;47005;52.292;13.452;2023-06-26T11:28:03;5.80;;;4.40;;
21611;SDS011;47005;52.292;13.452;2023-06-26T11:30:30;7.28;;;4.35;;
21611;SDS011;47005;52.292;13.452;2023-06-26T11:33:03;5.97;;;4.82;;
21611;SDS011;47005;52.292;13.452;2023-06-26T11:35:32;5.93;;;4.70;;
21611;SDS011;47005;52.292;13.452;2023-06-26T11:37:59;5.68;;;4.40;;
21611;SDS011;47005;52.292;13.452;2023-06-26T11:40:29;7.28;;;4.70;;
21611;SDS011;47005;52.292;13.452;2023-06-26T11:43:00;6.03;;;4.45;;
21611;SDS011;47005;52.292;13.452;2023-06-26T11:45:32;7.18;;;4.95;;
21611;SDS011;47005;52.292;13.452;2023-06-26T11:47:58;5.63;;;4.10;;
21611;SDS011;47005;52.292;13.452;2023-06-26T11:50:25;9.70;;;4.55;;
21611;SDS011;47005;52.292;13.452;2023-06-26T11:52:54;6.68;;;4.90;;
21611;SDS011;47005;52.292;13.452;2023-06-26T11:55:21;6.90;;;5.07;;
21611;SDS011;47005;52.292;13.452;2023-06-26T11:57:48;8.10;;;5.00;;
21611;SDS011;47005;52.292;13.452;2023-06-26T12:00:15;5.93;;;4.55;;
21611;SDS011;47005;52.292;13.452;2023-06-26T12:02:43;6.35;;;5.47;;
21611;SDS011;47005;52.292;13.452;2023-06-26T12:05:11;6.13;;;4.90;;
21611;SDS011;47005;52.292;13.452;2023-06-26T12:07:45;5.85;;;4.85;;
21611;SDS011;47005;52.292;13.452;2023-06-26T12:10:13;7.22;;;4.78;;
21611;SDS011;47005;52.292;13.452;2023-06-26T12:12:40;6.80;;;5.43;;
21611;SDS011;47005;52.292;13.452;2023-06-26T12:15:07;8.35;;;5.07;;
21611;SDS011;47005;52.292;13.452;2023-06-26T12:17:36;8.35;;;5.50;;
21611;SDS011;47005;52.292;13.452;2023-06-26T12:20:04;6.25;;;5.43;;
21611;SDS011;47005;52.292;13.452;2023-06-26T12:22:34;6.05;;;4.53;;
21611;SDS011;47005;52.292;13.452;2023-06-26T12:25:03;6.85;;;5.30;;
21611;SDS011;47005;52.292;13.452;2023-06-26T12:27:32;5.47;;;4.90;;
21611;SDS011;47005;52.292;13.452;2023-06-26T12:29:57;6.65;;;5.38;;
21611;SDS011;47005;52.292;13.452;2023-06-26T12:32:23;7.20;;;5.22;;
21611;SDS011;47005;52.292;13.452;2023-06-26T12:34:50;8.13;;;4.75;;
21611;SDS011;47005;52.292;13.452;2023-06-26T12:37:16;8.13;;;5.10;;
21611;SDS011;47005;52.292;13.452;2023-06-26T12:42:15;6.78;;;5.70;;
21611;SDS011;47005;52.292;13.452;2023-06-26T12:44:51;11.05;;;5.40;;
21611;SDS011;47005;52.292;13.452;2023-06-26T12:47:19;6.65;;;5.43;;
21611;SDS011;47005;52.292;13.452;2023-06-26T12:49:51;7.07;;;5.03;;
21611;SDS011;47005;52.292;13.452;2023-06-26T12:52:17;6.60;;;5.57;;
21611;SDS011;47005;52.292;13.452;2023-06-26T12:54:45;6.82;;;5.15;;
21611;SDS011;47005;52.292;13.452;2023-06-26T12:57:12;6.63;;;5.90;;
21611;SDS011;47005;52.292;13.452;2023-06-26T12:59:39;6.60;;;5.25;;
21611;SDS011;47005;52.292;13.452;2023-06-26T13:02:05;7.78;;;6.07;;
21611;SDS011;47005;52.292;13.452;2023-06-26T13:04:31;7.25;;;6.07;;
21611;SDS011;47005;52.292;13.452;2023-06-26T13:06:58;7.18;;;6.38;;
21611;SDS011;47005;52.292;13.452;2023-06-26T13:09:24;7.55;;;5.78;;
21611;SDS011;47005;52.292;13.452;2023-06-26T13:11:50;7.03;;;5.43;;
21611;SDS011;47005;52.292;13.452;2023-06-26T13:14:16;7.75;;;6.00;;
21611;SDS011;47005;52.292;13.452;2023-06-26T13:16:42;7.75;;;5.80;;
21611;SDS011;47005;52.292;13.452;2023-06-26T13:19:08;8.98;;;5.40;;
21611;SDS011;47005;52.292;13.452;2023-06-26T13:21:34;7.03;;;5.43;;
21611;SDS011;47005;52.292;13.452;2023-06-26T13:24:00;8.15;;;5.20;;
21611;SDS011;47005;52.292;13.452;2023-06-26T13:26:26;6.22;;;5.32;;
21611;SDS011;47005;52.292;13.452;2023-06-26T13:28:54;7.50;;;5.65;;
21611;SDS011;47005;52.292;13.452;2023-06-26T13:31:20;5.85;;;4.57;;
21611;SDS011;47005;52.292;13.452;2023-06-26T13:33:46;6.80;;;5.30;;
21611;SDS011;47005;52.292;13.452;2023-06-26T13:36:17;6.43;;;4.85;;
21611;SDS011;47005;52.292;13.452;2023-06-26T13:38:43;6.70;;;5.18;;
21611;SDS011;47005;52.292;13.452;2023-06-26T13:41:08;6.45;;;5.30;;
21611;SDS011;47005;52.292;13.452;2023-06-26T13:43:34;5.50;;;4.82;;
21611;SDS011;47005;52.292;13.452;2023-06-26T13:46:00;6.75;;;5.53;;
21611;SDS011;47005;52.292;13.452;2023-06-26T13:48:26;7.35;;;5.35;;
21611;SDS011;47005;52.292;13.452;2023-06-26T13:50:51;7.05;;;5.53;;
21611;SDS011;47005;52.292;13.452;2023-06-26T13:53:21;6.72;;;5.13;;
21611;SDS011;47005;52.292;13.452;2023-06-26T13:55:47;9.43;;;6.60;;
21611;SDS011;47005;52.292;13.452;2023-06-26T13:58:13;6.38;;;5.32;;
21611;SDS011;47005;52.292;13.452;2023-06-26T14:00:39;8.48;;;6.00;;
21611;SDS011;47005;52.292;13.452;2023-06-26T14:03:06;6.18;;;5.07;;
21611;SDS011;47005;52.292;13.452;2023-06-26T14:05:36;7.90;;;5.80;;
21611;SDS011;47005;52.292;13.452;2023-06-26T14:08:03;8.40;;;5.90;;
21611;SDS011;47005;52.292;13.452;2023-06-26T14:10:29;6.57;;;5.85;;
21611;SDS011;47005;52.292;13.452;2023-06-26T14:12:56;7.18;;;6.35;;
21611;SDS011;47005;52.292;13.452;2023-06-26T14:15:21;6.13;;;5.53;;
21611;SDS011;47005;52.292;13.452;2023-06-26T14:17:47;6.97;;;5.72;;
21611;SDS011;47005;52.292;13.452;2023-06-26T14:20:15;7.45;;;5.90;;
21611;SDS011;47005;52.292;13.452;2023-06-26T14:22:41;7.43;;;6.03;;
21611;SDS011;47005;52.292;13.452;2023-06-26T14:25:09;7.95;;;5.38;;
21611;SDS011;47005;52.292;13.452;2023-06-26T14:27:35;9.43;;;5.90;;
21611;SDS011;47005;52.292;13.452;2023-06-26T14:30:02;7.22;;;6.35;;
21611;SDS011;47005;52.292;13.452;2023-06-26T14:32:28;6.35;;;4.93;;
21611;SDS011;47005;52.292;13.452;2023-06-26T14:34:54;7.07;;;5.80;;
21611;SDS011;47005;52.292;13.452;2023-06-26T14:37:21;6.80;;;5.88;;